Flight Track Log - Related Links

Times and Time Zones

All times are in EDT time to prevent confusion due to time zone crossing. See the AAL1583 flight status page for this flight to view local times or setup timezone preferences in your user account.

Time Position Orientation Groundspeed Altitude Reporting Facility
EDT Latitude Longitude Course Direction KTS MPH feet Rate Location/Type
Sun 08:02:23 PM 32.8714 -97.0304 112° Southeast 253 291 4,600  Level FlightAware ADS-B
Sun 08:04:24 PM 32.7743 -96.9709 112° Southeast 253 291 4,800 380 Climbing FlightAware ADS-B
Sun 08:04:45 PM 32.7664 -96.9401 103° East 263 303 5,500 2,229 Climbing FlightAware ADS-B
Sun 08:05:34 PM 32.7751 -96.8592 66° East 288 331 7,400 2,361 Climbing FlightAware ADS-B
Sun 08:05:46 PM 32.7841 -96.8434 51° Northeast 295 339 7,900 2,276 Climbing FlightAware ADS-B
Sun 08:06:03 PM 32.7960 -96.8309 43° Northeast 297 342 8,500 2,057 Climbing FlightAware ADS-B
Sun 08:06:56 PM 32.8759 -96.8086 North 320 368 10,300 1,562 Climbing FlightAware ADS-B
Sun 08:07:16 PM 32.9022 -96.8084 359° North 342 394 10,400 526 Climbing FlightAware ADS-B
Sun 08:07:53 PM 32.9661 -96.8106 356° North 383 441 10,800 1,320 Climbing FlightAware ADS-B
Sun 08:08:06 PM 32.9921 -96.8186 339° North 380 437 11,500 2,909 Climbing FlightAware ADS-B
Sun 08:08:26 PM 33.0221 -96.8404 322° Northwest 376 433 12,400 2,262 Climbing FlightAware ADS-B
Sun 08:09:07 PM 33.0671 -96.8841 321° Northwest 375 432 13,800 2,415 Climbing FlightAware ADS-B
Sun 08:09:48 PM 33.1282 -96.9369 329° Northwest 386 444 15,700 2,370 Climbing FlightAware ADS-B
Sun 08:10:28 PM 33.1908 -96.9792 330° Northwest 401 461 17,000 2,292 Climbing FlightAware ADS-B
Sun 08:11:17 PM 33.2697 -97.0320 330° Northwest 407 468 19,100 2,333 Climbing FlightAware ADS-B
Sun 08:11:58 PM 33.3258 -97.0695 330° Northwest 411 473 20,500 2,148 Climbing FlightAware ADS-B
Sun 08:12:38 PM 33.4012 -97.1203 330° Northwest 419 482 22,000 1,888 Climbing FlightAware ADS-B
Sun 08:13:27 PM 33.4908 -97.1808 330° Northwest 437 503 23,300 1,722 Climbing FlightAware ADS-B
Sun 08:14:26 PM 33.5847 -97.2436 330° Northwest 430 495 25,100 1,785 Climbing Fort Worth Center
Sun 08:15:28 PM 33.7125 -97.3297 331° Northwest 437 503 26,900 1,452 Climbing Fort Worth Center
Sun 08:16:30 PM 33.8222 -97.4053 330° Northwest 453 521 28,100 1,500 Climbing Fort Worth Center
Sun 08:17:32 PM 33.9344 -97.4825 330° Northwest 462 532 30,000 1,694 Climbing Fort Worth Center
Sun 08:18:34 PM 34.0439 -97.5561 331° Northwest 456 525 31,600 1,548 Climbing Fort Worth Center
Sun 08:19:36 PM 34.1642 -97.6447 329° Northwest 457 526 33,200 1,452 Climbing Fort Worth Center
Sun 08:20:38 PM 34.2747 -97.7206 330° Northwest 456 525 34,600 1,344 Climbing Fort Worth Center
Sun 08:21:41 PM 34.3831 -97.7936 331° Northwest 447 514 36,000 672 Climbing Fort Worth Center
Sun 08:22:43 PM 34.4914 -97.8683 330° Northwest 445 512 36,000  Level Fort Worth Center
Sun 08:23:45 PM 34.5978 -97.9444 330° Northwest 445 512 36,000  Level Fort Worth Center
Sun 08:24:47 PM 34.7278 -98.0333 331° Northwest 445 512 36,000  Level Fort Worth Center
Sun 08:25:49 PM 34.8342 -98.1097 329° Northwest 445 512 36,000  Level Fort Worth Center
Sun 08:26:51 PM 34.9131 -98.2194 311° West 431 496 36,000  Level Fort Worth Center
Sun 08:27:53 PM 34.9878 -98.3328 309° West 431 496 36,000  Level Fort Worth Center
Sun 08:28:55 PM 35.0625 -98.4453 309° West 426 490 36,000 -48 Level Fort Worth Center
Sun 08:29:57 PM 35.1406 -98.5658 308° West 426 490 35,900  Descending Fort Worth Center
Sun 08:30:59 PM 35.2150 -98.6806 308° West 426 490 36,000 48 Climbing Fort Worth Center
Sun 08:32:01 PM 35.2900 -98.7944 309° West 426 490 36,000  Level Fort Worth Center
Sun 08:37:29 PM 35.7027 -99.4392 308° West 424 488 36,000  Level FlightAware ADS-B (KBFK)
Sun 08:38:41 PM 35.8029 -99.5621 318° Northwest 425 489 36,000  Level FlightAware ADS-B (KBFK)
Sun 08:39:13 PM 35.8486 -99.6125 319° Northwest 425 489 36,000  Level FlightAware ADS-B (KBFK)
Sun 08:39:45 PM 35.8868 -99.6543 319° Northwest 424 488 36,000  Level FlightAware ADS-B (KBFK)
Sun 08:40:27 PM 35.9571 -99.7329 318° Northwest 422 486 36,000  Level FlightAware ADS-B (KBFK)
Sun 08:40:50 PM 35.9819 -99.7605 318° Northwest 422 486 36,000  Level FlightAware ADS-B (KBFK)
Sun 08:41:30 PM 36.0510 -99.8366 318° Northwest 421 484 36,000  Level FlightAware ADS-B (KBFK)
Sun 08:41:58 PM 36.0688 -99.8564 318° Northwest 421 484 36,000  Level FlightAware ADS-B (KBFK)
Sun 08:42:30 PM 36.1377 -99.9339 318° Northwest 420 483 36,000  Level FlightAware ADS-B (KBFK)
Sun 08:42:52 PM 36.1490 -99.9467 318° Northwest 419 482 36,000  Level FlightAware ADS-B (KBFK)
Sun 08:43:27 PM 36.1947 -99.9984 318° Northwest 419 482 36,000  Level FlightAware ADS-B (KBFK)
Sun 08:43:54 PM 36.2509 -100.0616 318° Northwest 417 480 36,000  Level FlightAware ADS-B (KBFK)
Sun 08:44:26 PM 36.3001 -100.1172 318° Northwest 417 480 36,000  Level FlightAware ADS-B (KBFK)
Sun 08:44:37 PM 36.3071 -100.1251 318° Northwest 417 480 36,000  Level FlightAware ADS-B (KBFK)
Sun 08:45:28 PM 36.3833 -100.2075 318° Northwest 415 478 36,000 -53 Level Fort Worth Center
Sun 08:46:30 PM 36.4711 -100.3031 319° Northwest 415 478 35,900  Descending Fort Worth Center
Sun 08:47:29 PM 36.5528 -100.4039 315° West 414 476 36,000 50 Climbing Kansas City Center
Sun 08:48:31 PM 36.6333 -100.4975 317° Northwest 414 476 36,000  Level Kansas City Center
Sun 08:49:31 PM 36.7275 -100.6064 317° Northwest 413 475 36,000  Level Kansas City Center
Sun 08:50:34 PM 36.8086 -100.6992 318° Northwest 413 475 36,000  Level Kansas City Center
Sun 08:51:36 PM 36.9022 -100.8072 317° Northwest 413 475 36,000  Level Kansas City Center
Sun 08:52:40 PM 36.9831 -100.9011 317° Northwest 413 475 36,000  Level Kansas City Center
Sun 08:53:41 PM 37.0631 -100.9969 316° Northwest 413 475 36,000  Level Kansas City Center
Sun 08:54:43 PM 37.1467 -101.1228 310° West 417 480 36,000  Level Kansas City Center
Sun 08:55:44 PM 37.2200 -101.2275 311° West 417 480 36,000  Level Kansas City Center
Sun 08:56:47 PM 37.3056 -101.3536 310° West 417 480 36,000  Level Kansas City Center
Sun 08:57:49 PM 37.3792 -101.4611 311° West 418 481 36,000  Level Kansas City Center
Sun 08:58:52 PM 37.4636 -101.5853 311° West 418 481 36,000 -288 Level Kansas City Center
Sun 08:59:54 PM 37.5347 -101.6925 310° West 418 481 35,400 -829 Descending Kansas City Center
Sun 09:00:55 PM 37.6192 -101.8169 311° West 418 481 34,300 -683 Descending Kansas City Center
Sun 09:01:57 PM 37.6922 -101.9250 311° West 418 481 34,000 -146 Descending Kansas City Center
Sun 09:02:58 PM 37.7678 -102.0314 312° West 420 483 34,000 -281 Level Kansas City Center
Sun 09:09:04 PM 38.2734 -102.7242 312° West 427 491 32,000 -302 Descending FlightAware ADS-B (KEIK)
Sun 09:09:35 PM 38.3141 -102.7807 313° West 410 472 32,000  Level FlightAware ADS-B (KEIK)
Sun 09:10:11 PM 38.3587 -102.8428 312° West 394 453 32,000  Level FlightAware ADS-B (KEIK)
Sun 09:10:46 PM 38.3972 -102.8970 312° West 392 451 32,000  Level FlightAware ADS-B (KEIK)
Sun 09:11:25 PM 38.4488 -102.9692 312° West 390 449 32,000  Level FlightAware ADS-B (KEIK)
Sun 09:12:05 PM 38.4949 -103.0335 312° West 388 447 32,000  Level FlightAware ADS-B (KEIK)
Sun 09:12:46 PM 38.5430 -103.1010 312° West 387 445 32,000  Level FlightAware ADS-B (KEIK)
Sun 09:13:28 PM 38.5984 -103.1792 312° West 411 473 32,000  Level FlightAware ADS-B (KEIK)
Sun 09:13:59 PM 38.6383 -103.2351 312° West 416 479 32,000  Level FlightAware ADS-B (KEIK)
Sun 09:14:38 PM 38.6779 -103.2910 312° West 416 479 32,000  Level FlightAware ADS-B
Sun 09:15:23 PM 38.7428 -103.3831 312° West 417 480 32,000  Level FlightAware ADS-B
Sun 09:16:00 PM 38.7880 -103.4473 312° West 416 479 32,000 -86 Level FlightAware ADS-B (KEIK)
Sun 09:16:33 PM 38.8360 -103.5157 312° West 414 476 31,900 -667 Descending FlightAware ADS-B (KEIK)
Sun 09:17:03 PM 38.8736 -103.5691 312° West 410 472 31,300 -1,000 Descending FlightAware ADS-B (KEIK)
Sun 09:17:33 PM 38.9097 -103.6208 312° West 405 466 30,900 -1,180 Descending FlightAware ADS-B (KEIK)
Sun 09:18:04 PM 38.9483 -103.6761 312° West 397 457 30,100 -1,869 Descending FlightAware ADS-B (KEIK)
Sun 09:18:34 PM 38.9875 -103.7322 312° West 388 447 29,000 -2,164 Descending FlightAware ADS-B (KEIK)
Sun 09:19:05 PM 39.0243 -103.7849 312° West 392 451 27,900 -2,087 Descending FlightAware ADS-B (KANK)
Sun 09:19:43 PM 39.0668 -103.8464 312° West 383 441 26,600 -2,087 Descending FlightAware ADS-B
Sun 09:20:14 PM 39.1035 -103.8993 312° West 378 435 25,500 -2,164 Descending FlightAware ADS-B (KEIK)
Sun 09:20:44 PM 39.1390 -103.9504 312° West 370 426 24,400 -2,143 Descending FlightAware ADS-B (KEIK)
Sun 09:21:24 PM 39.1850 -104.0161 312° West 361 415 23,000 -1,859 Descending FlightAware ADS-B (KEIK)
Sun 09:21:55 PM 39.2186 -104.0643 312° West 349 402 22,200 -1,313 Descending FlightAware ADS-B (KEIK)
Sun 09:22:28 PM 39.2500 -104.1088 315° West 335 386 21,600 -1,317 Descending FlightAware ADS-B
Sun 09:22:36 PM 39.2627 -104.1238 321° Northwest 334 384 21,300 -1,043 Descending FlightAware ADS-B
Sun 09:22:51 PM 39.2825 -104.1425 328° Northwest 328 377 21,200 -638 Descending FlightAware ADS-B (KANK)
Sun 09:23:23 PM 39.3224 -104.1750 328° Northwest 312 359 20,800 -1,048 Descending FlightAware ADS-B
Sun 09:23:54 PM 39.3591 -104.2050 328° Northwest 307 353 20,100 -1,545 Descending FlightAware ADS-B
Sun 09:24:29 PM 39.4011 -104.2391 328° Northwest 306 352 19,100 -1,816 Descending FlightAware ADS-B
Sun 09:25:10 PM 39.4493 -104.2781 328° Northwest 307 353 17,800 -1,690 Descending FlightAware ADS-B
Sun 09:25:40 PM 39.4861 -104.3083 327° Northwest 300 345 17,100 -689 Descending FlightAware ADS-B (KEIK)
Sun 09:26:11 PM 39.5202 -104.3365 327° Northwest 295 339 17,100 -94 Level FlightAware ADS-B (KEIK)
Sun 09:26:44 PM 39.5563 -104.3661 328° Northwest 275 316 17,000 -822 Descending FlightAware ADS-B
Sun 09:27:24 PM 39.6014 -104.4030 328° Northwest 275 316 16,100 -1,457 Descending FlightAware ADS-B (KEIK)
Sun 09:27:54 PM 39.6325 -104.4286 328° Northwest 272 313 15,300 -1,574 Descending FlightAware ADS-B
Sun 09:28:25 PM 39.6664 -104.4562 328° Northwest 267 307 14,500 -1,429 Descending FlightAware ADS-B
Sun 09:28:57 PM 39.6996 -104.4840 327° Northwest 269 310 13,800 -1,143 Descending FlightAware ADS-B (KEIK)
Sun 09:29:28 PM 39.7260 -104.5059 328° Northwest 271 312 13,300 -1,000 Descending FlightAware ADS-B
Sun 09:29:39 PM 39.7446 -104.5184 339° North 273 314 13,100 -889 Descending FlightAware ADS-B (KEIK)
Sun 09:29:55 PM 39.7648 -104.5236 355° North 277 319 12,900 -727 Descending FlightAware ADS-B
Sun 09:30:12 PM 39.7837 -104.5236 North 278 320 12,700 -857 Descending FlightAware ADS-B (KEIK)
Sun 09:30:51 PM 39.8371 -104.5227 North 279 321 12,100 -917 Descending FlightAware ADS-B (KEIK)
Sun 09:31:24 PM 39.8773 -104.5222 North 276 318 11,600 -885 Descending FlightAware ADS-B
Sun 09:31:52 PM 39.9153 -104.5219 North 276 318 11,200 -652 Descending FlightAware ADS-B
Sun 09:32:10 PM 39.9367 -104.5218 360° North 275 316 11,100 -727 Descending FlightAware ADS-B
Sun 09:32:25 PM 39.9521 -104.5215 North 271 312 10,800 -1,200 Descending FlightAware ADS-B
Sun 09:33:00 PM 39.9956 -104.5197 North 267 307 10,100 -1,286 Descending FlightAware ADS-B
Sun 09:33:21 PM 40.0225 -104.5186 North 266 306 9,600 -1,467 Descending FlightAware ADS-B (KEIK)
Sun 09:33:45 PM 40.0561 -104.5179 North 266 306 9,000 -1,588 Descending FlightAware ADS-B (KEIK)
Sun 09:33:55 PM 40.0679 -104.5192 350° North 264 304 8,700 -1,429 Descending FlightAware ADS-B (KEIK)
Sun 09:34:06 PM 40.0804 -104.5259 331° Northwest 263 303 8,500 -1,429 Descending FlightAware ADS-B (KEIK)
Sun 09:34:16 PM 40.0867 -104.5323 313° West 260 299 8,200 -1,875 Descending FlightAware ADS-B (KEIK)
Sun 09:34:22 PM 40.0937 -104.5444 300° West 257 296 8,000 -1,500 Descending FlightAware ADS-B (KEIK)
Sun 09:34:36 PM 40.0981 -104.5646 278° West 249 287 7,700 -1,227 Descending FlightAware ADS-B (KEIK)
Sun 09:35:06 PM 40.1000 -104.6084 267° West 246 283 7,100 -720 Descending FlightAware ADS-B (KEIK)
Sun 09:35:26 PM 40.0932 -104.6309 230° Southwest 236 272 7,100  Level FlightAware ADS-B (KEIK)
Sun 09:35:36 PM 40.0832 -104.6423 215° Southwest 232 267 7,100  Level FlightAware ADS-B (KEIK)
Sun 09:35:55 PM 40.0652 -104.6576 213° Southwest 222 255 7,100  Level FlightAware ADS-B (KEIK)
Sun 09:36:16 PM 40.0475 -104.6727 212° Southwest 210 242 7,100  Level FlightAware ADS-B (KEIK)
Sun 09:36:26 PM 40.0395 -104.6778 204° Southwest 206 237 7,100  Level FlightAware ADS-B (KEIK)
Sun 09:36:45 PM 40.0235 -104.6855 193° South 191 220 7,100  Level FlightAware ADS-B (KEIK)
Sun 09:36:56 PM 40.0134 -104.6865 180° South 186 214 7,100  Level FlightAware ADS-B (KEIK)
Sun 09:37:16 PM 39.9964 -104.6857 178° South 183 211 7,100 -167 Level FlightAware ADS-B (KEIK)
Sun 09:37:32 PM 39.9837 -104.6856 180° South 188 216 7,000 -771 Descending FlightAware ADS-B (KEIK)
Sun 09:38:26 PM 39.9391 -104.6863 181° South 159 183 6,200 -904 Descending FlightAware ADS-B (KEIK)
Sun 09:38:45 PM 39.9255 -104.6865 181° South 162 186 5,900 -787 Descending FlightAware ADS-B (KEIK)
Sun 09:39:27 PM 39.9042 -104.6868 180° South 164 189 5,400 -526 Descending FlightAware ADS-B
Sun 09:39:42 PM 39.8841 -104.6870 180° South 135 155 5,400  Level FlightAware ADS-B

Login

Don't have an account? Register now (free) for customized features, flight alerts, and more!